Time;durP1;ratioP1;P1;durP2;ratioP2;P2;SDS_P1;SDS_P2;PMS_P1;PMS_P2;Temp;Humidity;BMP_temperature;BMP_pressure;BME280_temperature;BME280_humidity;BME280_pressure;Samples;Min_cycle;Max_cycle;Signal;HPM_P1;HPM_P2
2022/03/04 00:01:20;;;;;;;20.92;13.68;;;2.60;99.90;;;;;;5058542;28;20041;-78
2022/03/04 00:03:55;;;;;;;21.83;13.95;;;2.60;99.90;;;;;;5060916;28;20052;-78
2022/03/04 00:06:21;;;;;;;29.13;14.75;;;2.80;99.90;;;;;;5076568;28;20083;-78
2022/03/04 00:08:47;;;;;;;23.67;14.02;;;2.50;99.90;;;;;;5076274;28;20523;-78
2022/03/04 00:11:13;;;;;;;24.60;14.63;;;2.80;99.90;;;;;;5075515;28;20404;-78
2022/03/04 00:13:40;;;;;;;24.38;13.63;;;2.50;99.90;;;;;;5058901;28;20047;-78
2022/03/04 00:16:07;;;;;;;21.75;14.10;;;2.50;99.90;;;;;;5034018;28;20041;-76
2022/03/04 00:18:33;;;;;;;23.63;13.10;;;2.40;99.90;;;;;;5072484;28;20040;-76
2022/03/04 00:20:58;;;;;;;23.90;13.40;;;2.40;99.90;;;;;;5061474;28;20032;-79
2022/03/04 00:23:24;;;;;;;24.90;13.95;;;2.40;99.90;;;;;;5076141;28;20446;-79
2022/03/04 00:25:50;;;;;;;23.17;13.30;;;2.40;99.90;;;;;;5075002;28;20049;-80
2022/03/04 00:28:18;;;;;;;24.83;13.45;;;2.40;99.90;;;;;;5059240;28;20040;-79
2022/03/04 00:30:44;;;;;;;24.85;14.45;;;2.30;99.90;;;;;;5059115;28;20475;-80
2022/03/04 00:33:10;;;;;;;23.27;13.50;;;2.40;99.90;;;;;;5075759;28;20036;-80
2022/03/04 00:35:35;;;;;;;23.92;14.27;;;2.30;99.90;;;;;;5058813;28;20048;-79
2022/03/04 00:38:01;;;;;;;23.90;14.00;;;2.70;99.90;;;;;;5075176;28;20039;-79
2022/03/04 00:40:27;;;;;;;26.33;13.60;;;2.30;99.90;;;;;;5058631;28;20082;-79
2022/03/04 00:42:56;;;;;;;24.35;14.50;;;2.30;99.90;;;;;;5058933;28;20410;-79
2022/03/04 00:45:21;;;;;;;26.75;14.20;;;2.30;99.90;;;;;;5074957;28;20032;-79
2022/03/04 00:47:47;;;;;;;25.23;14.20;;;2.20;99.90;;;;;;5074905;28;20036;-79
2022/03/04 00:50:13;;;;;;;25.50;14.20;;;2.20;99.90;;;;;;5038918;28;20135;-79
2022/03/04 00:52:38;;;;;;;23.83;13.88;;;2.20;99.90;;;;;;5056615;28;20075;-79
2022/03/04 00:55:05;;;;;;;25.05;14.48;;;2.20;99.90;;;;;;5058319;28;20483;-79
2022/03/04 00:57:31;;;;;;;26.33;15.18;;;2.20;99.90;;;;;;5072274;28;20455;-79
2022/03/04 00:59:57;;;;;;;23.48;14.00;;;2.20;99.90;;;;;;5075221;28;20068;-79
2022/03/04 01:02:23;;;;;;;29.40;15.35;;;3.00;99.90;;;;;;5075174;28;20047;-79
2022/03/04 01:04:48;;;;;;;30.63;15.05;;;2.10;99.90;;;;;;5058051;28;20047;-79
2022/03/04 01:07:14;;;;;;;25.67;14.50;;;2.10;99.90;;;;;;5058219;28;20043;-79
2022/03/04 01:09:40;;;;;;;26.42;15.07;;;2.00;99.90;;;;;;5075007;28;20035;-79
2022/03/04 01:12:06;;;;;;;26.75;15.45;;;2.00;99.90;;;;;;5058097;28;20395;-78
2022/03/04 01:14:32;;;;;;;23.85;14.93;;;1.90;99.90;;;;;;5054972;28;20488;-79
2022/03/04 01:16:58;;;;;;;25.27;14.80;;;1.90;99.90;;;;;;5038392;28;20178;-78
2022/03/04 01:19:24;;;;;;;24.10;14.57;;;1.80;99.90;;;;;;5038458;28;20048;-80
2022/03/04 01:21:50;;;;;;;25.67;15.52;;;1.80;99.90;;;;;;5038382;28;20123;-79
2022/03/04 01:24:15;;;;;;;26.70;15.75;;;1.70;99.90;;;;;;5055253;28;20479;-78
2022/03/04 01:26:44;;;;;;;26.90;15.35;;;1.70;99.90;;;;;;5074919;28;20055;-80
2022/03/04 01:29:10;;;;;;;26.40;15.10;;;1.70;99.90;;;;;;5038313;28;20040;-80
2022/03/04 01:31:35;;;;;;;26.85;16.65;;;1.90;99.90;;;;;;5038080;28;20101;-80
2022/03/04 01:34:01;;;;;;;26.10;15.90;;;1.70;99.90;;;;;;5058202;28;20166;-80
2022/03/04 01:36:32;;;;;;;26.80;15.38;;;1.70;99.90;;;;;;5088081;28;20055;-80
2022/03/04 01:38:58;;;;;;;31.63;16.25;;;1.80;99.90;;;;;;5071295;28;20047;-80
2022/03/04 01:41:23;;;;;;;28.40;16.50;;;1.70;99.90;;;;;;5071323;28;20048;-80
2022/03/04 01:43:49;;;;;;;26.58;16.23;;;1.70;99.90;;;;;;5071534;28;20036;-80
2022/03/04 01:46:17;;;;;;;25.75;16.23;;;1.60;99.90;;;;;;5070807;28;20047;-80
2022/03/04 01:48:45;;;;;;;24.83;15.15;;;1.70;99.90;;;;;;5054823;28;20194;-80
2022/03/04 01:51:12;;;;;;;31.88;16.88;;;1.90;99.90;;;;;;5070818;28;20094;-80
2022/03/04 01:53:39;;;;;;;28.55;16.42;;;1.60;99.90;;;;;;5070729;28;20040;-80
2022/03/04 01:56:05;;;;;;;32.88;16.75;;;1.60;99.90;;;;;;5049567;28;20226;-80
2022/03/04 01:58:31;;;;;;;33.45;17.15;;;1.60;99.90;;;;;;5051058;28;20090;-80
2022/03/04 02:01:00;;;;;;;30.20;17.67;;;2.20;99.90;;;;;;5062208;28;20105;-80
2022/03/04 02:03:26;;;;;;;29.30;16.65;;;1.60;99.90;;;;;;5071049;28;20037;-80
2022/03/04 02:05:52;;;;;;;32.17;16.73;;;1.50;99.90;;;;;;5041841;28;20044;-80
2022/03/04 02:08:18;;;;;;;31.38;17.27;;;1.70;99.90;;;;;;5054979;28;20033;-80
2022/03/04 02:10:47;;;;;;;29.73;16.73;;;1.50;99.90;;;;;;5038414;28;20533;-80
2022/03/04 02:13:14;;;;;;;27.55;16.42;;;1.50;99.90;;;;;;5057543;28;20436;-80
2022/03/04 02:15:43;;;;;;;30.60;17.00;;;1.50;99.90;;;;;;5074717;28;20054;-80
2022/03/04 02:18:17;;;;;;;30.65;17.40;;;1.50;99.90;;;;;;5075066;28;20373;-80
2022/03/04 02:20:49;;;;;;;26.38;15.68;;;1.50;99.90;;;;;;5057946;28;20032;-79
2022/03/04 02:23:16;;;;;;;32.30;16.73;;;1.50;99.90;;;;;;5054543;28;20098;-75
2022/03/04 02:25:47;;;;;;;30.48;17.25;;;1.50;99.90;;;;;;5062101;28;20097;-75
2022/03/04 02:28:13;;;;;;;30.63;17.13;;;1.80;99.90;;;;;;5069887;28;20106;-75
2022/03/04 02:30:39;;;;;;;31.02;17.27;;;1.50;99.90;;;;;;5060102;28;20481;-75
2022/03/04 02:33:08;;;;;;;31.10;17.42;;;1.40;99.90;;;;;;5091035;28;20059;-75
2022/03/04 02:35:34;;;;;;;31.92;18.08;;;1.40;99.90;;;;;;5092698;28;20090;-75
2022/03/04 02:38:03;;;;;;;30.08;17.65;;;1.40;99.90;;;;;;5074382;28;20063;-75
2022/03/04 02:40:30;;;;;;;34.97;17.48;;;1.40;99.90;;;;;;5081112;28;20479;-75
2022/03/04 02:42:58;;;;;;;31.40;17.50;;;1.40;99.90;;;;;;5077596;28;20061;-75
2022/03/04 02:45:25;;;;;;;32.92;17.42;;;1.70;99.90;;;;;;5076997;28;20048;-75
2022/03/04 02:47:53;;;;;;;30.92;16.48;;;1.40;99.90;;;;;;5078031;28;20090;-75
2022/03/04 02:50:24;;;;;;;27.20;16.58;;;1.30;99.90;;;;;;5077290;28;20040;-76
2022/03/04 02:52:58;;;;;;;26.70;16.40;;;1.30;99.90;;;;;;5060724;28;20075;-76
2022/03/04 02:55:24;;;;;;;30.20;17.58;;;1.30;99.90;;;;;;5057452;28;20051;-75
2022/03/04 02:57:50;;;;;;;26.42;16.52;;;1.30;99.90;;;;;;5075377;28;20388;-75
2022/03/04 03:00:25;;;;;;;37.08;17.80;;;1.30;99.90;;;;;;5045726;28;20047;-75
2022/03/04 03:02:51;;;;;;;33.13;16.23;;;1.30;99.90;;;;;;5076977;28;20076;-75
2022/03/04 03:05:17;;;;;;;29.48;17.20;;;0.90;99.90;;;;;;5076968;28;20052;-75
2022/03/04 03:07:43;;;;;;;30.13;16.92;;;1.30;99.90;;;;;;5077203;28;20121;-75
2022/03/04 03:10:09;;;;;;;29.63;16.52;;;1.20;99.90;;;;;;5076912;28;20070;-76
2022/03/04 03:12:41;;;;;;;30.45;16.85;;;1.10;99.90;;;;;;5072811;28;20052;-76
2022/03/04 03:15:15;;;;;;;32.78;16.95;;;1.00;99.90;;;;;;5041028;28;20044;-76
2022/03/04 03:17:46;;;;;;;28.45;16.80;;;1.50;99.90;;;;;;5093650;28;20400;-75
2022/03/04 03:20:13;;;;;;;27.75;16.20;;;1.20;99.90;;;;;;5077153;28;20040;-76
2022/03/04 03:22:41;;;;;;;29.15;16.85;;;1.10;99.90;;;;;;5093999;28;20480;-75
2022/03/04 03:25:08;;;;;;;29.92;17.10;;;1.00;99.90;;;;;;5059264;28;20089;-75
2022/03/04 03:27:39;;;;;;;29.00;17.08;;;1.10;99.90;;;;;;5094417;28;20040;-76
2022/03/04 03:30:07;;;;;;;30.92;16.50;;;1.10;99.90;;;;;;5077004;28;20128;-76
2022/03/04 03:32:35;;;;;;;31.25;17.17;;;1.00;99.90;;;;;;5094637;28;20036;-75
2022/03/04 03:35:08;;;;;;;29.17;17.35;;;1.30;99.90;;;;;;5073148;28;20056;-75
2022/03/04 03:37:38;;;;;;;31.50;17.65;;;0.40;99.90;;;;;;5037137;28;20461;-75
2022/03/04 03:40:09;;;;;;;28.77;16.38;;;0.80;99.90;;;;;;5054879;28;20087;-75
2022/03/04 03:42:39;;;;;;;32.85;16.70;;;1.00;99.90;;;;;;5056634;28;20040;-75
2022/03/04 03:45:07;;;;;;;30.27;16.55;;;1.20;99.90;;;;;;5073644;28;20405;-75
2022/03/04 03:47:39;;;;;;;32.00;17.52;;;1.00;99.90;;;;;;5069756;28;20037;-75
2022/03/04 03:50:10;;;;;;;31.45;17.35;;;1.00;99.90;;;;;;5055384;28;20056;-76
2022/03/04 03:52:36;;;;;;;32.97;17.10;;;0.80;99.90;;;;;;5072610;28;20048;-76
2022/03/04 03:55:06;;;;;;;30.67;16.60;;;1.80;99.90;;;;;;5073077;28;20041;-76
2022/03/04 03:57:31;;;;;;;29.35;17.55;;;0.90;99.90;;;;;;5056030;28;20044;-75
2022/03/04 03:59:59;;;;;;;30.33;16.85;;;1.40;99.90;;;;;;5074282;28;20163;-75
2022/03/04 04:02:28;;;;;;;32.05;17.60;;;1.00;99.90;;;;;;5072968;28;20177;-75
2022/03/04 04:04:54;;;;;;;32.72;18.02;;;1.40;99.90;;;;;;5072777;28;20073;-75
2022/03/04 04:07:20;;;;;;;32.63;17.90;;;0.90;99.90;;;;;;5072809;28;20120;-75
2022/03/04 04:09:45;;;;;;;34.20;17.92;;;0.90;99.90;;;;;;5056132;28;20056;-75
2022/03/04 04:12:13;;;;;;;34.00;17.92;;;1.50;99.90;;;;;;5072545;28;20041;-75
2022/03/04 04:14:38;;;;;;;33.25;18.15;;;0.80;99.90;;;;;;5055772;28;20423;-75
2022/03/04 04:17:07;;;;;;;32.72;18.00;;;0.80;99.90;;;;;;5089476;28;20041;-75
2022/03/04 04:19:35;;;;;;;34.78;18.20;;;0.80;99.90;;;;;;5042191;28;20037;-75
2022/03/04 04:22:01;;;;;;;33.28;18.10;;;0.80;99.90;;;;;;5068766;28;20041;-75
2022/03/04 04:24:26;;;;;;;35.78;18.65;;;0.80;99.90;;;;;;5081877;28;20094;-75
2022/03/04 04:26:55;;;;;;;33.35;18.95;;;1.10;99.90;;;;;;5055973;28;20094;-75
2022/03/04 04:29:21;;;;;;;31.80;18.42;;;0.70;99.90;;;;;;5073657;28;20044;-75
2022/03/04 04:31:46;;;;;;;35.85;19.58;;;0.70;99.90;;;;;;5072469;28;20154;-75
2022/03/04 04:34:12;;;;;;;36.08;19.88;;;0.60;99.90;;;;;;5088956;28;20044;-75
2022/03/04 04:36:38;;;;;;;36.05;20.67;;;0.60;99.90;;;;;;5055553;28;20076;-75
2022/03/04 04:39:04;;;;;;;36.53;20.02;;;0.60;99.90;;;;;;5055371;28;20036;-75
2022/03/04 04:41:35;;;;;;;33.80;19.38;;;0.50;99.90;;;;;;5072644;28;20117;-76
2022/03/04 04:44:01;;;;;;;39.97;19.67;;;1.10;99.90;;;;;;5072193;28;20459;-76
2022/03/04 04:46:27;;;;;;;38.22;20.42;;;0.60;99.90;;;;;;5055232;28;20076;-76
2022/03/04 04:48:53;;;;;;;38.00;21.08;;;0.80;99.90;;;;;;5088986;28;20080;-76
2022/03/04 04:51:19;;;;;;;37.92;21.02;;;0.60;99.90;;;;;;5068239;28;20036;-76
2022/03/04 04:53:44;;;;;;;40.33;20.67;;;0.60;99.90;;;;;;5039847;28;20161;-76
2022/03/04 04:56:10;;;;;;;40.58;20.23;;;1.10;99.90;;;;;;5073149;28;20033;-76
2022/03/04 04:58:36;;;;;;;41.03;20.67;;;0.60;99.90;;;;;;5049634;28;20037;-76
2022/03/04 05:01:05;;;;;;;38.97;21.38;;;0.60;99.90;;;;;;5057621;28;20067;-75
2022/03/04 05:03:33;;;;;;;38.03;20.77;;;0.60;99.90;;;;;;5073136;28;20066;-76
2022/03/04 05:06:02;;;;;;;35.45;20.70;;;0.60;99.90;;;;;;5088686;28;20045;-75
2022/03/04 05:08:29;;;;;;;36.47;19.65;;;0.60;99.90;;;;;;5071685;28;20044;-76
2022/03/04 05:10:58;;;;;;;35.58;19.67;;;0.60;99.90;;;;;;5071336;28;20040;-76
2022/03/04 05:13:27;;;;;;;35.90;20.92;;;0.60;99.90;;;;;;5068406;28;20037;-76
2022/03/04 05:15:55;;;;;;;31.73;19.52;;;1.00;99.90;;;;;;5053724;28;20478;-76
2022/03/04 05:18:21;;;;;;;41.17;20.27;;;1.10;99.90;;;;;;5072857;28;20399;-75
2022/03/04 05:20:53;;;;;;;35.30;19.63;;;0.70;99.90;;;;;;5071522;28;20123;-76
2022/03/04 05:26:05;;;;;;;37.15;21.60;;;1.60;99.90;;;;;;5051800;28;20415;-75
2022/03/04 05:28:31;;;;;;;38.22;21.73;;;1.00;99.90;;;;;;5051559;28;20043;-75
2022/03/04 05:30:59;;;;;;;37.03;21.40;;;0.50;99.90;;;;;;5043879;28;20473;-75
2022/03/04 05:33:24;;;;;;;35.33;20.90;;;0.80;99.90;;;;;;5054642;28;20375;-75
2022/03/04 05:35:53;;;;;;;36.30;20.55;;;0.70;99.90;;;;;;5070752;28;20123;-75
2022/03/04 05:38:19;;;;;;;34.25;20.75;;;0.70;99.90;;;;;;5054782;28;20099;-75
2022/03/04 05:40:50;;;;;;;35.33;20.20;;;0.70;99.90;;;;;;5051037;28;20123;-75
2022/03/04 05:43:16;;;;;;;34.78;19.65;;;0.70;99.90;;;;;;5050587;28;20049;-75
2022/03/04 05:45:45;;;;;;;35.53;20.38;;;0.50;99.90;;;;;;5020903;28;20048;-75
2022/03/04 05:48:11;;;;;;;34.70;20.50;;;1.30;99.90;;;;;;5054979;28;20072;-75
2022/03/04 05:50:37;;;;;;;35.65;20.05;;;0.60;99.90;;;;;;5037820;28;20036;-75
2022/03/04 05:53:05;;;;;;;36.20;20.30;;;0.70;99.90;;;;;;5053741;28;20048;-75
2022/03/04 05:55:31;;;;;;;36.40;21.73;;;1.10;99.90;;;;;;5054371;28;20493;-75
2022/03/04 05:57:57;;;;;;;35.90;20.95;;;0.80;99.90;;;;;;5072075;28;20040;-75
2022/03/04 06:00:30;;;;;;;37.92;20.95;;;0.60;99.90;;;;;;5054571;28;20036;-75
2022/03/04 06:02:57;;;;;;;33.53;20.42;;;0.90;99.90;;;;;;5037564;28;20102;-75
2022/03/04 06:05:29;;;;;;;32.10;19.80;;;0.80;99.90;;;;;;5054151;28;20212;-76
2022/03/04 06:07:55;;;;;;;36.60;20.38;;;1.00;99.90;;;;;;5054574;28;20048;-75
2022/03/04 06:10:20;;;;;;;32.47;19.77;;;1.20;99.90;;;;;;5037147;28;20041;-76
2022/03/04 06:12:46;;;;;;;34.88;19.98;;;0.90;99.90;;;;;;5021259;28;20083;-76
2022/03/04 06:15:15;;;;;;;34.80;21.02;;;0.80;99.90;;;;;;5054099;28;20048;-76
2022/03/04 06:17:49;;;;;;;33.33;19.55;;;0.80;99.90;;;;;;5037744;28;20036;-76
2022/03/04 06:20:16;;;;;;;37.22;20.75;;;0.70;99.90;;;;;;5053654;28;20044;-76
2022/03/04 06:22:42;;;;;;;38.10;21.65;;;1.30;99.90;;;;;;5054196;28;20055;-76
2022/03/04 06:25:10;;;;;;;37.63;22.20;;;1.00;99.90;;;;;;5037429;28;20131;-76
2022/03/04 06:27:59;;;;;;;36.95;22.17;;;0.80;99.90;;;;;;5053845;28;20040;-76
2022/03/04 06:30:27;;;;;;;35.30;20.60;;;0.80;99.90;;;;;;5046108;28;20052;-76
2022/03/04 06:33:29;;;;;;;39.13;22.02;;;1.30;99.90;;;;;;5071685;28;20370;-76
2022/03/04 06:35:43;;;;;;;31.52;19.98;;;1.20;99.90;;;;;;5066669;28;20446;-76
2022/03/04 06:38:09;;;;;;;38.20;21.17;;;0.90;99.90;;;;;;5071707;28;20037;-76
2022/03/04 06:40:40;;;;;;;33.30;19.75;;;0.80;99.90;;;;;;5070357;28;20484;-76
2022/03/04 06:43:09;;;;;;;35.22;20.75;;;0.90;99.90;;;;;;5070728;28;20048;-76
2022/03/04 06:45:38;;;;;;;35.53;20.80;;;0.80;99.90;;;;;;5073394;28;20075;-76
2022/03/04 06:48:06;;;;;;;39.03;21.58;;;1.20;99.90;;;;;;5071708;28;20141;-76
2022/03/04 06:50:32;;;;;;;37.90;22.02;;;1.00;99.90;;;;;;5074317;28;20439;-76
2022/03/04 06:53:03;;;;;;;32.70;20.13;;;1.00;99.90;;;;;;5057200;28;20451;-76
2022/03/04 06:55:35;;;;;;;35.97;21.40;;;1.00;99.90;;;;;;5073982;28;20037;-76
2022/03/04 06:58:01;;;;;;;36.55;20.90;;;1.00;99.90;;;;;;5053478;28;20028;-76
2022/03/04 07:00:29;;;;;;;37.28;21.15;;;1.00;99.90;;;;;;5056849;28;20498;-77
2022/03/04 07:02:55;;;;;;;34.88;20.95;;;1.50;99.90;;;;;;5074073;28;20123;-75
2022/03/04 07:05:22;;;;;;;33.85;20.48;;;1.40;99.90;;;;;;5075362;28;20397;-75
2022/03/04 07:07:52;;;;;;;37.20;20.45;;;1.10;99.90;;;;;;5057244;28;20045;-75
2022/03/04 07:10:24;;;;;;;36.38;20.85;;;1.00;99.90;;;;;;5074845;28;20138;-75
2022/03/04 07:12:50;;;;;;;33.25;20.77;;;1.50;99.90;;;;;;5073933;28;20546;-76
2022/03/04 07:15:47;;;;;;;37.75;20.23;;;1.00;99.90;;;;;;5074701;28;20040;-85
2022/03/04 07:18:29;;;;;;;31.42;20.67;;;1.70;99.90;;;;;;5059921;28;20047;-77
2022/03/04 07:21:24;;;;;;;34.85;20.90;;;1.30;99.90;;;;;;5069623;28;20091;-77
2022/03/04 07:23:50;;;;;;;35.28;21.15;;;0.90;99.90;;;;;;5053714;28;20122;-78
2022/03/04 07:26:16;;;;;;;34.50;21.35;;;0.90;99.90;;;;;;5072153;28;20037;-78
2022/03/04 07:28:49;;;;;;;38.58;21.08;;;0.90;99.90;;;;;;5071380;28;20039;-80
2022/03/04 07:31:37;;;;;;;37.55;21.73;;;1.60;99.90;;;;;;5051236;28;20500;-82
2022/03/04 07:34:06;;;;;;;38.00;20.35;;;0.90;99.90;;;;;;5053498;28;20050;-79
2022/03/04 07:36:33;;;;;;;37.80;21.55;;;1.40;99.90;;;;;;5058460;28;20040;-77
2022/03/04 07:39:04;;;;;;;36.90;21.05;;;1.30;99.90;;;;;;5074544;28;20044;-78
2022/03/04 07:41:30;;;;;;;39.92;23.38;;;1.80;99.90;;;;;;5054233;28;20059;-79
2022/03/04 07:44:08;;;;;;;39.88;21.42;;;0.90;99.90;;;;;;5042534;28;20040;-79
2022/03/04 07:46:37;;;;;;;38.20;21.33;;;0.80;99.90;;;;;;5030832;28;20043;-80
2022/03/04 07:49:03;;;;;;;33.10;19.17;;;1.30;99.90;;;;;;5059606;28;20032;-80
2022/03/04 07:51:29;;;;;;;40.17;19.42;;;1.30;99.90;;;;;;5050576;28;20101;-79
2022/03/04 07:53:56;;;;;;;33.13;20.13;;;1.30;99.90;;;;;;5059142;28;20028;-78
2022/03/04 07:56:24;;;;;;;34.28;20.58;;;1.30;99.90;;;;;;5058370;28;20067;-77
2022/03/04 07:58:50;;;;;;;35.05;21.45;;;1.30;99.90;;;;;;5061607;28;20032;-77
2022/03/04 08:01:19;;;;;;;34.88;20.33;;;1.50;99.90;;;;;;5055843;28;20472;-78
2022/03/04 08:03:46;;;;;;;32.20;20.58;;;1.70;99.90;;;;;;5049393;28;20044;-78
2022/03/04 08:06:20;;;;;;;34.15;19.75;;;1.30;99.90;;;;;;5058047;28;20040;-78
2022/03/04 08:08:46;;;;;;;35.30;20.55;;;1.40;99.90;;;;;;5055922;28;20123;-78
2022/03/04 08:11:12;;;;;;;32.05;19.67;;;1.30;99.90;;;;;;5058574;28;20055;-78
2022/03/04 08:13:38;;;;;;;35.65;20.08;;;1.40;99.90;;;;;;5075199;28;20032;-80
2022/03/04 08:16:06;;;;;;;37.95;21.73;;;1.90;99.90;;;;;;5058353;28;20571;-77
2022/03/04 08:18:32;;;;;;;34.05;20.83;;;1.50;99.90;;;;;;5076135;28;20275;-77
2022/03/04 08:21:00;;;;;;;33.95;20.40;;;1.70;99.90;;;;;;5057795;28;20048;-77
2022/03/04 08:23:28;;;;;;;30.35;19.05;;;1.60;99.90;;;;;;5074838;28;20039;-76
2022/03/04 08:25:57;;;;;;;30.05;18.48;;;1.70;99.90;;;;;;5038920;28;20040;-76
2022/03/04 08:28:23;;;;;;;28.17;18.13;;;2.20;99.90;;;;;;5074912;28;20075;-77
2022/03/04 08:30:49;;;;;;;30.90;18.02;;;1.70;99.90;;;;;;5058668;28;20040;-76
2022/03/04 08:33:15;;;;;;;28.70;18.23;;;2.60;99.90;;;;;;5092494;28;20051;-76
2022/03/04 08:35:41;;;;;;;32.90;18.75;;;1.50;99.90;;;;;;5074515;28;20108;-76
2022/03/04 08:38:10;;;;;;;30.42;18.90;;;1.70;99.90;;;;;;5075226;28;20088;-77
2022/03/04 08:40:36;;;;;;;29.55;18.55;;;1.70;99.90;;;;;;5050006;28;20579;-77
2022/03/04 08:43:01;;;;;;;29.58;19.55;;;1.80;99.90;;;;;;5092834;28;20044;-76
2022/03/04 08:45:27;;;;;;;33.83;18.73;;;1.70;99.90;;;;;;5041202;28;20040;-75
2022/03/04 08:47:53;;;;;;;33.50;17.70;;;1.80;99.90;;;;;;5057435;28;20040;-76
2022/03/04 08:50:21;;;;;;;33.67;18.63;;;2.00;99.90;;;;;;5075223;28;20040;-78
2022/03/04 08:52:48;;;;;;;29.67;19.58;;;2.00;99.90;;;;;;5074050;28;20043;-76
2022/03/04 08:55:14;;;;;;;30.08;18.67;;;1.70;99.90;;;;;;5058262;28;20043;-76
2022/03/04 08:57:45;;;;;;;32.67;19.90;;;2.00;99.90;;;;;;5038730;28;20037;-78
2022/03/04 09:00:12;;;;;;;32.30;19.42;;;2.20;99.90;;;;;;5055677;28;20098;-80
2022/03/04 09:02:38;;;;;;;32.58;19.77;;;2.00;99.90;;;;;;5052946;28;20036;-78
2022/03/04 09:05:06;;;;;;;32.97;19.17;;;2.10;99.90;;;;;;5056127;28;20036;-82
2022/03/04 09:07:35;;;;;;;30.73;19.67;;;2.10;99.90;;;;;;5064139;28;20039;-79
2022/03/04 09:10:01;;;;;;;29.50;18.55;;;2.20;99.90;;;;;;5040988;28;20044;-75
2022/03/04 09:12:27;;;;;;;30.75;18.95;;;2.20;99.90;;;;;;5054637;28;20097;-76
2022/03/04 09:14:53;;;;;;;31.05;19.15;;;2.10;99.90;;;;;;5057337;28;20032;-76
2022/03/04 09:17:18;;;;;;;30.75;19.27;;;2.00;99.90;;;;;;5057660;28;20031;-75
2022/03/04 09:19:46;;;;;;;30.30;19.75;;;2.20;99.90;;;;;;5055985;28;20044;-75
2022/03/04 09:22:12;;;;;;;28.67;19.13;;;2.30;99.90;;;;;;5038910;28;20407;-75
2022/03/04 09:24:38;;;;;;;33.65;18.75;;;2.30;99.90;;;;;;5090774;28;20065;-77
2022/03/04 09:27:07;;;;;;;32.35;19.58;;;2.30;99.90;;;;;;5074851;28;20032;-76
2022/03/04 09:29:36;;;;;;;29.50;18.63;;;2.30;99.90;;;;;;5084928;28;20515;-76
2022/03/04 09:32:02;;;;;;;31.42;19.33;;;2.30;99.90;;;;;;5069551;28;20076;-73
2022/03/04 09:34:28;;;;;;;30.92;19.27;;;2.30;99.90;;;;;;5074478;28;20074;-76
2022/03/04 09:36:54;;;;;;;31.30;18.58;;;2.30;99.90;;;;;;5071953;28;20511;-74
2022/03/04 09:39:20;;;;;;;34.88;19.63;;;2.30;99.90;;;;;;5090104;28;20068;-75
2022/03/04 09:41:46;;;;;;;32.72;19.48;;;2.50;99.90;;;;;;5057941;28;20292;-74
2022/03/04 09:44:14;;;;;;;30.40;19.52;;;2.20;99.90;;;;;;5059250;28;20071;-74
2022/03/04 09:46:43;;;;;;;30.00;20.33;;;2.30;99.90;;;;;;5074045;28;20044;-78
2022/03/04 09:49:11;;;;;;;28.30;18.52;;;2.40;99.90;;;;;;5089878;28;20036;-78
2022/03/04 09:51:36;;;;;;;30.88;19.30;;;2.40;99.90;;;;;;5091997;28;20039;-78
2022/03/04 09:54:03;;;;;;;33.00;19.17;;;2.40;99.90;;;;;;5070495;28;20044;-77
2022/03/04 09:56:28;;;;;;;32.13;19.10;;;2.60;99.90;;;;;;5072141;28;20045;-78
2022/03/04 09:58:54;;;;;;;32.97;19.80;;;2.50;99.90;;;;;;5036016;28;20162;-78
2022/03/04 10:01:23;;;;;;;36.65;19.23;;;2.60;99.90;;;;;;5072380;28;20036;-78
2022/03/04 10:03:51;;;;;;;34.42;19.35;;;2.70;99.90;;;;;;5070881;28;20394;-78
2022/03/04 10:06:19;;;;;;;34.85;19.48;;;2.70;99.90;;;;;;5074747;28;20391;-78
2022/03/04 10:08:50;;;;;;;34.90;19.23;;;2.90;99.90;;;;;;5074075;28;20043;-78
2022/03/04 10:11:26;;;;;;;30.65;19.50;;;2.80;99.90;;;;;;5074290;28;20040;-78
2022/03/04 10:13:54;;;;;;;31.30;19.33;;;2.90;99.90;;;;;;5074075;28;20059;-78
2022/03/04 10:16:38;;;;;;;32.65;19.52;;;2.90;99.90;;;;;;5074034;28;20506;-78
2022/03/04 10:19:10;;;;;;;30.13;18.45;;;3.00;99.90;;;;;;5092140;28;20085;-78
2022/03/04 10:21:57;;;;;;;30.40;18.80;;;3.00;99.90;;;;;;5077308;28;20115;-78
2022/03/04 10:24:34;;;;;;;30.75;19.50;;;3.00;99.90;;;;;;5078440;28;20503;-78
2022/03/04 10:27:01;;;;;;;29.85;18.67;;;3.00;99.90;;;;;;5058007;28;20484;-78
2022/03/04 10:29:29;;;;;;;30.23;18.48;;;3.00;99.90;;;;;;5055139;28;20554;-78
2022/03/04 10:32:10;;;;;;;29.65;18.13;;;3.10;99.90;;;;;;5058185;28;20075;-78
2022/03/04 10:34:48;;;;;;;27.50;17.80;;;3.20;99.90;;;;;;5077931;28;20084;-78
2022/03/04 10:37:16;;;;;;;25.60;16.92;;;3.20;99.90;;;;;;5057976;28;20400;-78
2022/03/04 10:40:06;;;;;;;26.25;17.98;;;3.60;99.90;;;;;;5041146;28;20040;-77
2022/03/04 10:42:39;;;;;;;30.25;18.08;;;3.30;99.90;;;;;;5077935;28;20059;-78
2022/03/04 10:45:07;;;;;;;29.42;17.23;;;3.60;99.90;;;;;;5061330;28;20040;-78
2022/03/04 10:47:45;;;;;;;28.00;17.40;;;3.40;99.90;;;;;;5077768;28;20048;-78
2022/03/04 10:50:15;;;;;;;27.48;16.65;;;3.50;99.90;;;;;;5061159;28;20043;-78
2022/03/04 10:52:57;;;;;;;24.73;16.17;;;3.60;99.90;;;;;;5061106;28;20453;-78
2022/03/04 10:55:44;;;;;;;25.15;16.48;;;3.70;99.90;;;;;;5095934;28;20411;-78
2022/03/04 10:58:20;;;;;;;27.10;15.55;;;3.70;99.90;;;;;;5061118;28;20047;-77
2022/03/04 11:01:00;;;;;;;23.83;15.38;;;3.80;99.90;;;;;;5077634;28;20076;-78
2022/03/04 11:03:31;;;;;;;26.65;15.25;;;3.90;99.90;;;;;;5095801;28;20040;-78
2022/03/04 11:06:06;;;;;;;25.10;15.65;;;3.90;99.90;;;;;;5077788;28;20032;-78
2022/03/04 11:08:43;;;;;;;23.48;16.20;;;4.00;99.90;;;;;;5095540;28;20082;-78
2022/03/04 11:11:09;;;;;;;23.35;15.65;;;4.00;99.90;;;;;;5057104;28;20465;-78
2022/03/04 11:13:36;;;;;;;21.25;14.90;;;4.10;99.90;;;;;;5057360;28;20123;-78
2022/03/04 11:16:06;;;;;;;21.50;14.60;;;4.20;99.90;;;;;;5075231;28;20044;-78
2022/03/04 11:18:34;;;;;;;31.30;15.48;;;4.50;99.90;;;;;;5075208;28;20114;-78
2022/03/04 11:21:00;;;;;;;21.52;14.32;;;4.40;99.90;;;;;;5075033;28;20041;-76
2022/03/04 11:23:29;;;;;;;21.95;14.20;;;4.40;99.90;;;;;;5056962;28;20119;-75
2022/03/04 11:26:28;;;;;;;25.73;15.52;;;4.50;99.90;;;;;;5060580;28;20152;-78
2022/03/04 11:28:54;;;;;;;25.40;15.18;;;4.50;99.90;;;;;;5074576;28;20047;-78
2022/03/04 11:31:23;;;;;;;24.92;15.75;;;5.40;99.90;;;;;;5094440;28;20118;-78
2022/03/04 11:33:55;;;;;;;23.98;15.65;;;4.60;99.90;;;;;;5076446;28;20178;-78
2022/03/04 11:36:25;;;;;;;26.00;14.98;;;4.70;99.90;;;;;;5073440;28;20068;-78
2022/03/04 11:38:51;;;;;;;26.42;15.55;;;4.70;99.90;;;;;;5073799;28;20044;-78
2022/03/04 11:41:26;;;;;;;23.00;15.05;;;4.80;99.90;;;;;;5073733;28;20388;-78
2022/03/04 11:43:59;;;;;;;22.17;13.90;;;4.90;99.90;;;;;;5074702;28;20093;-78
2022/03/04 11:46:43;;;;;;;23.73;14.75;;;5.10;99.90;;;;;;5057029;28;20063;-78
2022/03/04 11:49:30;;;;;;;26.48;14.48;;;5.60;99.90;;;;;;5074478;28;20045;-77
2022/03/04 11:52:21;;;;;;;22.65;15.10;;;5.10;99.90;;;;;;5073233;28;20392;-77
2022/03/04 11:54:49;;;;;;;23.85;14.80;;;5.50;99.90;;;;;;5074151;28;20032;-77
2022/03/04 11:57:15;;;;;;;22.60;15.13;;;5.20;99.90;;;;;;5073235;28;20131;-77
2022/03/04 11:59:51;;;;;;;22.70;14.55;;;5.20;99.90;;;;;;5074254;28;20133;-78
2022/03/04 12:02:20;;;;;;;;;;;5.30;99.90;;;;;;5073506;28;20037;-77
2022/03/04 12:05:19;;;;;;;22.20;14.95;;;5.30;99.90;;;;;;5072974;28;19916;-77
2022/03/04 12:08:08;;;;;;;23.15;14.73;;;5.40;99.90;;;;;;5072748;28;20044;-77
2022/03/04 12:10:40;;;;;;;24.52;14.73;;;5.40;99.90;;;;;;5074252;28;20043;-77
2022/03/04 12:13:07;;;;;;;28.75;15.98;;;5.50;99.90;;;;;;5072369;28;20040;-77
2022/03/04 12:15:42;;;;;;;28.42;16.45;;;5.50;99.90;;;;;;5072971;28;20051;-77
2022/03/04 12:18:28;;;;;;;23.90;15.75;;;5.50;99.90;;;;;;5073986;28;20048;-77
2022/03/04 12:20:58;;;;;;;;;;;5.60;99.90;;;;;;5056556;28;20094;-77
2022/03/04 12:23:28;;;;;;;28.38;16.35;;;5.20;99.90;;;;;;5069190;28;20070;-77
2022/03/04 12:25:57;;;;;;;32.15;17.50;;;6.20;99.90;;;;;;5036235;28;20057;-77
2022/03/04 12:28:47;;;;;;;33.20;17.30;;;5.70;99.90;;;;;;5052861;28;20052;-77
2022/03/04 12:31:18;;;;;;;24.35;16.65;;;5.80;99.90;;;;;;5052753;28;20416;-77
2022/03/04 12:33:50;;;;;;;30.25;16.65;;;5.70;99.90;;;;;;5053666;28;20103;-78
2022/03/04 12:36:17;;;;;;;31.67;18.30;;;5.80;99.90;;;;;;5055920;28;20397;-77
2022/03/04 12:38:50;;;;;;;27.55;16.65;;;5.80;99.90;;;;;;5070021;28;20128;-78
2022/03/04 12:41:20;;;;;;;25.70;16.50;;;5.80;99.90;;;;;;5073298;28;20165;-78
2022/03/04 12:43:54;;;;;;;27.90;17.45;;;6.00;99.90;;;;;;5091311;28;20399;-78
2022/03/04 12:46:24;;;;;;;29.00;17.13;;;5.90;99.90;;;;;;5075244;28;20043;-77
2022/03/04 12:48:52;;;;;;;27.15;16.83;;;5.90;99.90;;;;;;5093135;28;20173;-78
2022/03/04 12:51:32;;;;;;;29.25;17.48;;;6.00;99.90;;;;;;5058994;28;20391;-77